Елхово, Bulgaria

19 01, 2017 23:27 EET (GMT +0200)
Razdel | | Change Station

Elev 692 ft 42.08 °N, 26.65 °E | Updated 3 seconds ago

Облачно
Облачно
25.7 °F
Feels Like 26 °F
N
0.0
Вятър Променлива Вятър from С-И
Gusts 0.0 mph

Днес
High -- | Low -- °F
--% Chance of Precip.
Yesterday
High -- | Low -- °F
Precip. -- инчове
Атм. налягане 30.51 инчове
Видимост 6.2 мили
Облаци Few 2900 ft
Променлива Облачност 4800 ft
Температура с отчитане на вятъра 26 °F
Точка на оросяване 23 °F
Влажност 90%
Rainfall 0.14 инчове
Snow Depth Not available.
7:37 AM 5:11 PM
След пълнолуние, 50% visible
METAR LBBG 192100Z 36011KT 9999 FEW029 SCT048 M01/M04 Q1033 R99/19//95 NOSIG
Атм. налягане 30.51 инчове
Видимост 6.2 мили
Облаци Few 2900 ft
Променлива Облачност 4800 ft
Температура с отчитане на вятъра 26 °F
Точка на оросяване 23 °F
Влажност 90%
Rainfall 0.14 инчове
Snow Depth Not available.
7:37 AM 5:11 PM
След пълнолуние, 50% visible
METAR LBBG 192100Z 36011KT 9999 FEW029 SCT048 M01/M04 Q1033 R99/19//95 NOSIG

Get Your Daily Forecast Email!

Thanks for signing up!

Be on the lookout for a verification email in your inbox.

You'll start receiving the daily forecast at 8 AM.

×

10-Day Weather Forecast

×

Almanac

Астрономия

Jan. 19, 2017 Rise Set
Actual Time
Civil Twilight
Nautical Twilight
Astronomical Twilight
Moon
Length Of Visible Light
Продължителност на деня
Tomorrow will be .
, % of the Moon is Illuminated

Today's Extremes

Country Highs Country Lows

Community

WunderPhotos

Upload Photos

1,962,540 photos uploaded!

WunderBlog® & News

Nearby

Качество на въздуха

  Качество на въздуха AQ Index Pollutant
Not available.

Snow Depth

Station Depth Elevation

Earthquake Activity

City Distance Mag. Time & Date
Minimum magnitude displayed is 2.5.

Coastal Water Temperatures

Град Температура

Stations

Nearby Weather Stations

Station Location Temp Температура с отчитане на вятъра Точка на оросяване Влажност Вятър Precip. Elev Последна справка Type